createdAt,value
2022-09-10T00:01:42.276Z,1.00
2022-09-10T00:04:13.115Z,1.00
2022-09-10T00:06:43.650Z,1.10
2022-09-10T00:12:01.831Z,1.10
2022-09-10T00:14:30.850Z,1.10
2022-09-10T00:16:58.688Z,1.00
2022-09-10T00:19:27.411Z,1.30
2022-09-10T00:21:57.736Z,1.00
2022-09-10T00:24:32.160Z,1.20
2022-09-10T00:27:01.221Z,1.10
2022-09-10T00:32:07.637Z,1.60
2022-09-10T00:34:36.086Z,1.20
2022-09-10T00:37:06.885Z,1.10
2022-09-10T00:39:38.735Z,1.10
2022-09-10T00:42:11.265Z,1.10
2022-09-10T00:44:47.622Z,1.30
2022-09-10T00:47:42.166Z,0.90
2022-09-10T00:50:40.822Z,0.80
2022-09-10T00:53:15.507Z,0.80
2022-09-10T00:55:52.809Z,0.90
2022-09-10T00:58:23.990Z,1.00
2022-09-10T01:00:57.211Z,0.90
2022-09-10T01:03:32.594Z,0.80
2022-09-10T01:06:03.380Z,1.00
2022-09-10T01:08:30.812Z,0.90
2022-09-10T01:11:20.684Z,1.30
2022-09-10T01:14:17.599Z,1.30
2022-09-10T01:17:06.856Z,1.20
2022-09-10T01:20:14.356Z,1.20
2022-09-10T01:22:49.108Z,1.40
2022-09-10T01:25:38.863Z,1.10
2022-09-10T01:28:19.245Z,1.30
2022-09-10T01:30:57.840Z,0.90
2022-09-10T01:33:37.511Z,1.10
2022-09-10T01:36:16.047Z,0.90
2022-09-10T01:38:46.653Z,1.10
2022-09-10T01:41:16.143Z,0.80
2022-09-10T01:43:47.502Z,0.90
2022-09-10T01:46:57.363Z,1.20
2022-09-10T01:49:57.140Z,1.30
2022-09-10T01:52:42.321Z,1.10
2022-09-10T01:55:31.195Z,1.10
2022-09-10T01:58:04.981Z,1.00
2022-09-10T02:00:45.825Z,0.80
2022-09-10T02:03:19.963Z,1.00
2022-09-10T02:05:54.515Z,0.90
2022-09-10T02:08:31.031Z,1.00
2022-09-10T02:11:05.734Z,1.20
2022-09-10T02:13:37.385Z,0.90
2022-09-10T02:16:35.514Z,0.80
2022-09-10T02:19:07.112Z,1.00
2022-09-10T02:21:36.310Z,0.80
2022-09-10T02:24:12.659Z,0.90
2022-09-10T02:26:43.982Z,1.00
2022-09-10T02:29:15.571Z,0.90
2022-09-10T02:31:46.786Z,0.80
2022-09-10T02:34:16.005Z,1.10
2022-09-10T02:36:49.623Z,1.00
2022-09-10T02:39:19.822Z,0.70
2022-09-10T02:41:48.426Z,0.70
2022-09-10T02:44:17.756Z,0.80
2022-09-10T02:46:47.684Z,0.90
2022-09-10T02:49:18.441Z,0.80
2022-09-10T02:51:48.658Z,0.80
2022-09-10T02:54:19.289Z,0.90
2022-09-10T02:57:07.733Z,1.10
2022-09-10T02:59:36.613Z,0.90
2022-09-10T03:02:04.927Z,0.80
2022-09-10T03:04:33.938Z,0.70
2022-09-10T03:07:04.597Z,0.90
2022-09-10T03:09:32.114Z,1.00
2022-09-10T03:12:01.661Z,0.90
2022-09-10T03:14:31.480Z,1.10
2022-09-10T03:16:59.930Z,0.90
2022-09-10T03:19:27.240Z,0.90
2022-09-10T03:21:54.952Z,1.00
2022-09-10T03:24:22.180Z,1.10
2022-09-10T03:26:49.944Z,0.90
2022-09-10T03:29:22.303Z,1.00
2022-09-10T03:31:51.586Z,1.70
2022-09-10T03:34:20.228Z,1.10
2022-09-10T03:36:48.887Z,1.00
2022-09-10T03:39:15.900Z,0.90
2022-09-10T03:41:45.061Z,1.20
2022-09-10T03:44:14.500Z,0.90
2022-09-10T03:46:41.386Z,1.00
2022-09-10T03:49:09.723Z,1.00
2022-09-10T03:51:37.464Z,1.10
2022-09-10T03:54:05.958Z,1.00
2022-09-10T03:59:02.450Z,1.00
2022-09-10T04:01:29.889Z,0.80
2022-09-10T04:03:58.522Z,1.20
2022-09-10T04:06:27.589Z,1.10
2022-09-10T04:08:56.197Z,1.20
2022-09-10T04:13:56.404Z,1.00
2022-09-10T04:16:24.704Z,1.10
2022-09-10T04:18:51.883Z,1.00
2022-09-10T04:21:20.084Z,1.30
2022-09-10T04:23:56.532Z,1.20
2022-09-10T04:26:26.732Z,1.20
2022-09-10T04:28:54.971Z,1.10
2022-09-10T04:31:23.775Z,1.00
2022-09-10T04:33:54.942Z,1.50
2022-09-10T04:36:29.588Z,1.40
2022-09-10T04:38:59.926Z,1.30
2022-09-10T04:41:27.472Z,1.00
2022-09-10T04:43:54.977Z,1.20
2022-09-10T04:46:25.689Z,1.10
2022-09-10T04:48:54.585Z,1.70
2022-09-10T04:51:24.520Z,1.30
2022-09-10T04:53:53.414Z,1.30
2022-09-10T04:56:23.430Z,1.30
2022-09-10T04:58:53.890Z,1.50
2022-09-10T05:01:23.862Z,1.30
2022-09-10T05:03:52.597Z,1.20
2022-09-10T05:06:19.860Z,1.20
2022-09-10T05:08:48.875Z,1.30
2022-09-10T05:11:19.121Z,1.00
2022-09-10T05:13:48.857Z,1.10
2022-09-10T05:16:20.991Z,1.20
2022-09-10T05:18:47.823Z,1.20
2022-09-10T05:21:18.038Z,1.10
2022-09-10T05:23:46.061Z,1.50
2022-09-10T05:26:14.039Z,1.00
2022-09-10T05:28:41.978Z,1.20
2022-09-10T05:31:12.497Z,1.10
2022-09-10T05:33:41.047Z,1.00
2022-09-10T05:36:10.469Z,1.10
2022-09-10T05:41:11.297Z,1.20
2022-09-10T05:43:43.976Z,1.10
2022-09-10T05:46:11.861Z,1.20
2022-09-10T05:48:43.046Z,1.20
2022-09-10T05:51:11.642Z,1.10
2022-09-10T05:53:42.447Z,0.90
2022-09-10T05:56:12.426Z,1.20
2022-09-10T05:58:41.109Z,0.80
2022-09-10T06:01:10.571Z,1.00
2022-09-10T06:03:38.081Z,1.20
2022-09-10T06:06:06.509Z,1.10
2022-09-10T06:08:35.322Z,0.80
2022-09-10T06:11:09.902Z,0.90
2022-09-10T06:13:41.581Z,0.90
2022-09-10T06:16:09.223Z,1.10
2022-09-10T06:18:37.646Z,1.00
2022-09-10T06:21:11.306Z,1.00
2022-09-10T06:23:38.875Z,0.90
2022-09-10T06:26:17.834Z,0.90
2022-09-10T06:28:52.380Z,1.00
2022-09-10T06:31:19.850Z,1.00
2022-09-10T06:33:48.567Z,1.10
2022-09-10T06:36:35.796Z,1.10
2022-09-10T06:39:03.965Z,1.00
2022-09-10T06:41:42.309Z,0.80
2022-09-10T06:44:14.693Z,1.00
2022-09-10T06:49:35.871Z,1.10
2022-09-10T06:52:03.098Z,1.10
2022-09-10T06:54:31.478Z,1.00
2022-09-10T06:57:13.253Z,1.00
2022-09-10T06:59:41.431Z,1.20
2022-09-10T07:02:09.158Z,1.10
2022-09-10T07:04:36.430Z,1.10
2022-09-10T07:07:03.374Z,1.20
2022-09-10T07:09:31.385Z,1.10
2022-09-10T07:11:59.719Z,1.20
2022-09-10T07:14:30.347Z,1.00
2022-09-10T07:16:58.821Z,1.60
2022-09-10T07:19:30.230Z,1.50
2022-09-10T07:21:58.535Z,1.20
2022-09-10T07:24:25.212Z,1.00
2022-09-10T07:27:10.694Z,1.00
2022-09-10T07:29:38.472Z,0.90
2022-09-10T07:32:13.446Z,1.30
2022-09-10T07:34:40.594Z,0.90
2022-09-10T07:37:07.375Z,1.30
2022-09-10T07:39:35.101Z,1.00
2022-09-10T07:42:02.476Z,1.50
2022-09-10T07:44:35.372Z,1.20
2022-09-10T07:47:03.063Z,1.20
2022-09-10T07:49:30.909Z,1.00
2022-09-10T07:52:00.004Z,0.80
2022-09-10T07:54:32.423Z,1.20
2022-09-10T07:57:00.583Z,1.20
2022-09-10T07:59:29.848Z,0.90
2022-09-10T08:02:00.462Z,1.20
2022-09-10T08:04:37.262Z,1.00
2022-09-10T08:07:08.449Z,1.00
2022-09-10T08:09:38.574Z,1.00
2022-09-10T08:12:07.358Z,1.20
2022-09-10T08:14:37.612Z,1.00
2022-09-10T08:17:05.050Z,1.30
2022-09-10T08:19:36.199Z,1.10
2022-09-10T08:22:03.649Z,1.00
2022-09-10T08:24:38.624Z,0.90
2022-09-10T08:27:07.599Z,1.00
2022-09-10T08:29:34.471Z,1.10
2022-09-10T08:32:01.738Z,1.10
2022-09-10T08:34:31.189Z,1.30
2022-09-10T08:37:07.282Z,1.10
2022-09-10T08:39:36.723Z,1.20
2022-09-10T08:42:08.818Z,1.20
2022-09-10T08:44:49.705Z,1.10
2022-09-10T08:47:43.221Z,1.00
2022-09-10T08:50:28.770Z,1.10
2022-09-10T08:53:04.760Z,1.20
2022-09-10T08:55:35.631Z,1.10
2022-09-10T08:58:23.005Z,1.10
2022-09-10T09:00:57.186Z,1.20
2022-09-10T09:03:38.955Z,1.20
2022-09-10T09:06:21.545Z,1.20
2022-09-10T09:08:51.312Z,1.20
2022-09-10T09:11:34.310Z,1.30
2022-09-10T09:14:25.657Z,1.30
2022-09-10T09:17:26.168Z,1.40
2022-09-10T09:20:04.186Z,1.60
2022-09-10T09:23:04.619Z,1.10
2022-09-10T09:25:45.504Z,1.30
2022-09-10T09:28:36.231Z,1.40
2022-09-10T09:31:22.510Z,1.40
2022-09-10T09:33:56.714Z,1.30
2022-09-10T09:36:34.889Z,1.30
2022-09-10T09:39:16.615Z,1.10
2022-09-10T09:41:52.443Z,1.30
2022-09-10T09:44:31.480Z,1.20
2022-09-10T09:46:58.923Z,1.40
2022-09-10T09:49:26.370Z,1.20
2022-09-10T09:51:55.179Z,1.20
2022-09-10T09:57:19.868Z,1.40
2022-09-10T09:59:49.296Z,1.00
2022-09-10T10:02:19.397Z,1.20
2022-09-10T10:05:04.996Z,1.30
2022-09-10T10:07:35.506Z,1.40
2022-09-10T10:10:07.439Z,1.30
2022-09-10T10:12:47.685Z,1.20
2022-09-10T10:15:42.069Z,1.10
2022-09-10T10:18:23.819Z,1.10
2022-09-10T10:21:09.922Z,1.50
2022-09-10T10:23:38.436Z,1.00
2022-09-10T10:26:20.300Z,1.10
2022-09-10T10:28:49.135Z,1.40
2022-09-10T10:34:03.991Z,1.10
2022-09-10T10:37:01.771Z,1.10
2022-09-10T10:39:45.134Z,1.30
2022-09-10T10:42:23.989Z,1.30
2022-09-10T10:45:08.567Z,1.30
2022-09-10T10:48:11.395Z,1.10
2022-09-10T10:50:54.325Z,0.90
2022-09-10T10:53:48.076Z,1.10
2022-09-10T10:56:29.261Z,0.90
2022-09-10T10:59:18.426Z,1.30
2022-09-10T11:02:32.930Z,1.20
2022-09-10T11:05:21.579Z,0.80
2022-09-10T11:07:49.623Z,0.80
2022-09-10T11:10:43.163Z,0.90
2022-09-10T11:13:34.995Z,1.20
2022-09-10T11:16:09.281Z,0.90
2022-09-10T11:18:46.818Z,1.10
2022-09-10T11:21:35.058Z,1.00
2022-09-10T11:24:17.330Z,1.00
2022-09-10T11:26:53.503Z,0.80
2022-09-10T11:29:38.822Z,1.00
2022-09-10T11:32:18.071Z,0.90
2022-09-10T11:34:50.513Z,1.10
2022-09-10T11:37:26.195Z,1.00
2022-09-10T11:39:57.841Z,0.90
2022-09-10T11:42:25.147Z,0.70
2022-09-10T11:45:07.415Z,0.80
2022-09-10T11:47:42.499Z,1.10
2022-09-10T11:50:32.280Z,1.00
2022-09-10T11:53:03.323Z,1.50
2022-09-10T11:55:59.547Z,1.20
2022-09-10T11:58:44.252Z,0.80
2022-09-10T12:01:19.798Z,1.00
2022-09-10T12:04:14.524Z,0.80
2022-09-10T12:07:26.217Z,0.90
2022-09-10T12:10:14.660Z,1.00
2022-09-10T12:12:49.747Z,0.80
2022-09-10T12:15:21.781Z,0.90
2022-09-10T12:17:54.744Z,0.90
2022-09-10T12:20:29.900Z,0.70
2022-09-10T12:22:58.150Z,1.00
2022-09-10T12:28:08.268Z,0.70
2022-09-10T12:30:38.633Z,1.00
2022-09-10T12:33:12.638Z,0.80
2022-09-10T12:35:49.952Z,0.70
2022-09-10T12:38:45.149Z,0.70
2022-09-10T12:41:20.606Z,0.50
2022-09-10T12:44:34.264Z,0.60
2022-09-10T12:47:13.371Z,0.70
2022-09-10T12:52:27.798Z,1.60
2022-09-10T12:55:02.730Z,2.40
2022-09-10T12:58:08.286Z,1.20
2022-09-10T13:01:17.569Z,1.10
2022-09-10T13:03:58.139Z,0.90
2022-09-10T13:06:39.159Z,0.80
2022-09-10T13:09:19.198Z,1.00
2022-09-10T13:11:50.654Z,0.90
2022-09-10T13:14:23.669Z,0.90
2022-09-10T13:16:50.131Z,0.80
2022-09-10T13:19:20.052Z,0.80
2022-09-10T13:21:48.676Z,0.80
2022-09-10T13:24:33.953Z,0.90
2022-09-10T13:27:12.631Z,0.80
2022-09-10T13:32:37.596Z,0.90
2022-09-10T13:35:16.926Z,1.20
2022-09-10T13:37:59.827Z,1.10
2022-09-10T13:40:48.170Z,1.00
2022-09-10T13:43:37.429Z,1.00
2022-09-10T13:46:10.079Z,1.10
2022-09-10T13:48:50.466Z,1.10
2022-09-10T13:51:28.374Z,0.90
2022-09-10T13:54:08.504Z,0.90
2022-09-10T13:56:36.690Z,1.10
2022-09-10T14:01:54.470Z,0.80
2022-09-10T14:04:34.966Z,0.90
2022-09-10T14:07:25.128Z,0.90
2022-09-10T14:09:56.110Z,1.10
2022-09-10T14:12:27.022Z,1.00
2022-09-10T14:14:58.625Z,0.90
2022-09-10T14:17:34.426Z,1.00
2022-09-10T14:20:22.681Z,1.00
2022-09-10T14:22:57.997Z,1.10
2022-09-10T14:25:30.496Z,0.90
2022-09-10T14:28:15.634Z,0.70
2022-09-10T14:30:45.432Z,0.80
2022-09-10T14:33:25.116Z,1.00
2022-09-10T14:35:52.565Z,1.00
2022-09-10T14:38:28.744Z,0.80
2022-09-10T14:41:16.547Z,0.80
2022-09-10T14:43:43.284Z,0.80
2022-09-10T14:46:32.422Z,0.90
2022-09-10T14:48:59.038Z,0.70
2022-09-10T14:51:27.380Z,0.80
2022-09-10T14:53:56.612Z,0.90
2022-09-10T14:56:32.268Z,0.80
2022-09-10T14:59:12.644Z,0.80
2022-09-10T15:01:44.874Z,0.80
2022-09-10T15:04:22.907Z,0.90
2022-09-10T15:06:57.478Z,0.60
2022-09-10T15:09:26.634Z,0.50
2022-09-10T15:11:58.464Z,0.70
2022-09-10T15:14:25.657Z,0.80
2022-09-10T15:16:52.258Z,0.90
2022-09-10T15:19:19.222Z,1.20
2022-09-10T15:21:46.141Z,0.90
2022-09-10T15:24:16.522Z,1.20
2022-09-10T15:26:43.732Z,0.90
2022-09-10T15:29:11.134Z,1.00
2022-09-10T15:45:28.304Z,0.70
2022-09-10T15:57:00.433Z,0.80
2022-09-10T15:59:27.745Z,1.00
2022-09-10T16:01:54.229Z,1.60
2022-09-10T16:04:21.249Z,1.80
2022-09-10T16:06:47.908Z,1.20
2022-09-10T16:09:15.108Z,1.10
2022-09-10T16:11:42.928Z,1.30
2022-09-10T16:14:12.988Z,1.20
2022-09-10T16:16:41.032Z,1.30
2022-09-10T16:19:08.790Z,1.20
2022-09-10T16:21:37.495Z,1.20
2022-09-10T16:24:06.330Z,1.10
2022-09-10T16:26:36.784Z,1.20
2022-09-10T16:29:06.406Z,1.40
2022-09-10T16:31:38.921Z,2.20
2022-09-10T16:34:09.579Z,2.00
2022-09-10T16:36:37.417Z,1.70
2022-09-10T16:39:11.426Z,1.50
2022-09-10T16:41:40.178Z,1.30
2022-09-10T16:44:08.497Z,1.50
2022-09-10T16:46:35.411Z,1.20
2022-09-10T16:49:02.093Z,1.30
2022-09-10T16:51:29.067Z,1.20
2022-09-10T16:54:02.552Z,1.30
2022-09-10T16:56:37.211Z,1.50
2022-09-10T16:59:07.272Z,1.80
2022-09-10T17:01:37.809Z,1.20
2022-09-10T17:04:06.539Z,1.50
2022-09-10T17:06:34.541Z,1.60
2022-09-10T17:09:02.005Z,1.50
2022-09-10T17:11:31.234Z,1.40
2022-09-10T17:14:00.760Z,1.70
2022-09-10T17:16:33.500Z,2.10
2022-09-10T17:19:11.039Z,2.10
2022-09-10T17:21:40.339Z,2.60
2022-09-10T17:26:36.891Z,2.70
2022-09-10T17:29:08.803Z,2.30
2022-09-10T17:31:35.800Z,2.80
2022-09-10T17:34:03.270Z,2.60
2022-09-10T17:36:30.851Z,2.50
2022-09-10T17:38:58.834Z,3.10
2022-09-10T17:41:27.684Z,2.70
2022-09-10T17:46:23.620Z,3.00
2022-09-10T17:48:51.559Z,3.20
2022-09-10T17:51:30.405Z,2.90
2022-09-10T17:53:57.756Z,3.20
2022-09-10T17:56:32.394Z,3.00
2022-09-10T17:59:01.273Z,3.20
2022-09-10T18:01:30.299Z,3.20
2022-09-10T18:06:24.840Z,2.60
2022-09-10T18:08:51.443Z,3.00
2022-09-10T18:11:22.448Z,2.70
2022-09-10T18:13:51.823Z,2.80
2022-09-10T18:21:23.582Z,3.20
2022-09-10T18:23:55.866Z,2.90
2022-09-10T18:26:25.570Z,3.30
2022-09-10T18:28:59.179Z,3.00
2022-09-10T18:31:29.323Z,3.20
2022-09-10T18:33:58.252Z,3.10
2022-09-10T18:36:26.655Z,3.20
2022-09-10T18:38:52.946Z,3.00
2022-09-10T18:41:24.023Z,3.40
2022-09-10T18:43:52.635Z,3.20
2022-09-10T18:46:20.241Z,3.50
2022-09-10T18:48:47.427Z,4.00
2022-09-10T18:51:15.678Z,3.40
2022-09-10T18:53:44.598Z,3.70
2022-09-10T18:56:36.791Z,4.00
2022-09-10T18:59:06.648Z,3.10
2022-09-10T19:01:35.271Z,3.60
2022-09-10T19:04:06.371Z,3.70
2022-09-10T19:06:36.252Z,3.10
2022-09-10T19:09:10.320Z,2.30
2022-09-10T19:11:39.765Z,2.50
2022-09-10T19:14:13.797Z,2.70
2022-09-10T19:16:41.022Z,2.50
2022-09-10T19:19:14.827Z,2.50
2022-09-10T19:21:42.950Z,2.50
2022-09-10T19:24:09.333Z,2.90
2022-09-10T19:26:36.252Z,3.00
2022-09-10T19:29:03.996Z,3.20
2022-09-10T19:31:33.807Z,2.70
2022-09-10T19:34:05.464Z,3.00
2022-09-10T19:36:35.107Z,2.50
2022-09-10T19:39:07.641Z,2.80
2022-09-10T19:41:35.960Z,2.60
2022-09-10T19:44:04.171Z,2.50
2022-09-10T19:46:30.877Z,2.50
2022-09-10T19:48:59.169Z,2.20
2022-09-10T19:51:28.883Z,3.00
2022-09-10T19:53:56.404Z,3.00
2022-09-10T19:56:25.917Z,3.00
2022-09-10T20:01:24.678Z,3.10
2022-09-10T20:03:53.260Z,2.90
2022-09-10T20:06:23.513Z,2.70
2022-09-10T20:08:50.055Z,3.00
2022-09-10T20:11:20.263Z,3.60
2022-09-10T20:13:48.213Z,3.50
2022-09-10T20:16:16.924Z,3.40
2022-09-10T20:18:44.280Z,3.20
2022-09-10T20:21:14.493Z,4.20
2022-09-10T20:23:43.580Z,3.30
2022-09-10T20:28:38.230Z,3.60
2022-09-10T20:31:10.232Z,3.00
2022-09-10T20:33:40.880Z,3.10
2022-09-10T20:36:14.569Z,3.10
2022-09-10T20:38:42.842Z,3.20
2022-09-10T20:41:11.186Z,3.10
2022-09-10T20:43:38.666Z,2.80
2022-09-10T20:46:08.537Z,3.60
2022-09-10T20:48:34.864Z,3.50
2022-09-10T20:51:03.298Z,3.50
2022-09-10T20:53:34.788Z,3.40
2022-09-10T20:56:07.433Z,3.90
2022-09-10T20:58:36.688Z,7.60
2022-09-10T21:01:11.478Z,4.40
2022-09-10T21:03:43.066Z,4.10
2022-09-10T21:06:11.774Z,3.20
2022-09-10T21:08:40.425Z,3.20
2022-09-10T21:11:13.327Z,3.30
2022-09-10T21:13:50.643Z,3.00
2022-09-10T21:16:22.649Z,3.00
2022-09-10T21:18:54.583Z,2.80
2022-09-10T21:21:24.810Z,3.00
2022-09-10T21:23:53.735Z,2.20
2022-09-10T21:26:22.927Z,3.40
2022-09-10T21:28:57.620Z,2.70
2022-09-10T21:31:28.822Z,2.40
2022-09-10T21:34:01.892Z,1.90
2022-09-10T21:36:30.778Z,2.30
2022-09-10T21:38:59.738Z,2.40
2022-09-10T21:41:30.474Z,2.40
2022-09-10T21:43:58.550Z,2.30
2022-09-10T21:46:26.318Z,2.60
2022-09-10T21:48:53.331Z,1.90
2022-09-10T21:51:21.770Z,2.20
2022-09-10T21:53:54.600Z,2.20
2022-09-10T21:56:22.287Z,1.80
2022-09-10T21:58:50.289Z,1.90
2022-09-10T22:01:19.792Z,1.70
2022-09-10T22:03:48.037Z,2.20
2022-09-10T22:06:20.978Z,1.80
2022-09-10T22:08:49.584Z,1.50
2022-09-10T22:11:23.727Z,1.80
2022-09-10T22:13:53.551Z,1.40
2022-09-10T22:16:21.935Z,1.30
2022-09-10T22:18:49.767Z,1.50
2022-09-10T22:21:17.122Z,1.80
2022-09-10T22:23:44.398Z,1.70
2022-09-10T22:26:14.516Z,1.90
2022-09-10T22:28:43.031Z,1.50
2022-09-10T22:31:21.400Z,1.50
2022-09-10T22:33:53.565Z,1.40
2022-09-10T22:36:26.372Z,1.60
2022-09-10T22:38:58.629Z,1.30
2022-09-10T22:41:26.633Z,1.50
2022-09-10T22:43:53.548Z,1.80
2022-09-10T22:46:22.092Z,1.70
2022-09-10T22:48:48.466Z,1.60
2022-09-10T22:51:18.293Z,1.50
2022-09-10T22:53:45.993Z,1.90
2022-09-10T22:56:14.256Z,1.70
2022-09-10T22:58:42.209Z,1.90
2022-09-10T23:01:13.881Z,1.90
2022-09-10T23:03:42.166Z,1.60
2022-09-10T23:06:14.486Z,1.70
2022-09-10T23:08:46.395Z,1.70
2022-09-10T23:11:48.051Z,1.40
2022-09-10T23:14:19.408Z,1.80
2022-09-10T23:16:48.870Z,2.80
2022-09-10T23:19:18.594Z,2.70
2022-09-10T23:21:48.274Z,3.40
2022-09-10T23:24:18.288Z,2.70
2022-09-10T23:26:45.177Z,3.00
2022-09-10T23:29:12.816Z,3.10
2022-09-10T23:31:40.333Z,3.30
2022-09-10T23:34:11.566Z,3.00
2022-09-10T23:36:42.639Z,2.10
2022-09-10T23:39:15.986Z,2.30
2022-09-10T23:41:43.442Z,2.70
2022-09-10T23:44:10.806Z,2.00
2022-09-10T23:46:38.275Z,2.20
2022-09-10T23:49:06.931Z,2.30
2022-09-10T23:51:34.455Z,2.60
2022-09-10T23:54:02.285Z,3.60
2022-09-10T23:56:29.092Z,4.20
2022-09-10T23:58:59.055Z,4.10
